createdAt,value
2023-02-06T00:00:18.524Z,8.77
2023-02-06T00:03:05.953Z,8.82
2023-02-06T00:05:58.163Z,10.93
2023-02-06T00:08:45.253Z,9.88
2023-02-06T00:11:32.160Z,10.05
2023-02-06T00:14:19.030Z,10.73
2023-02-06T00:17:05.981Z,10.07
2023-02-06T00:19:52.844Z,10.80
2023-02-06T00:22:40.303Z,10.83
2023-02-06T00:25:27.129Z,11.80
2023-02-06T00:28:14.286Z,13.00
2023-02-06T00:31:01.308Z,14.15
2023-02-06T00:33:48.414Z,14.02
2023-02-06T00:36:35.237Z,13.38
2023-02-06T00:39:22.076Z,14.55
2023-02-06T00:42:09.032Z,13.67
2023-02-06T00:44:55.851Z,13.03
2023-02-06T00:47:42.695Z,13.10
2023-02-06T00:50:29.675Z,12.10
2023-02-06T00:53:16.710Z,13.82
2023-02-06T00:56:03.867Z,12.57
2023-02-06T00:58:50.675Z,12.10
2023-02-06T01:01:37.562Z,13.45
2023-02-06T01:04:24.629Z,12.75
2023-02-06T01:07:11.695Z,12.77
2023-02-06T01:09:58.604Z,12.57
2023-02-06T01:12:45.689Z,10.90
2023-02-06T01:15:32.608Z,11.65
2023-02-06T01:18:19.533Z,9.98
2023-02-06T01:21:15.236Z,11.07
2023-02-06T01:24:02.200Z,10.38
2023-02-06T01:26:49.013Z,10.77
2023-02-06T01:29:35.977Z,11.47
2023-02-06T01:32:22.801Z,12.30
2023-02-06T01:35:11.775Z,12.33
2023-02-06T01:37:59.012Z,12.35
2023-02-06T01:40:45.878Z,13.02
2023-02-06T01:43:37.854Z,13.53
2023-02-06T01:46:25.025Z,12.43
2023-02-06T01:49:29.759Z,9.40
2023-02-06T01:52:30.556Z,14.35
2023-02-06T01:55:17.836Z,12.45
2023-02-06T01:58:05.662Z,13.98
2023-02-06T02:03:42.928Z,13.05
2023-02-06T02:06:29.804Z,13.80
2023-02-06T02:09:18.642Z,13.00
2023-02-06T02:12:06.292Z,13.13
2023-02-06T02:14:54.573Z,13.15
2023-02-06T02:18:09.103Z,12.32
2023-02-06T02:21:37.472Z,13.93
2023-02-06T02:25:20.074Z,13.70
2023-02-06T02:28:48.184Z,12.43
2023-02-06T02:31:38.807Z,12.43
2023-02-06T02:35:07.093Z,12.50
2023-02-06T02:38:12.430Z,12.82
2023-02-06T02:41:26.858Z,12.93
2023-02-06T02:44:31.316Z,13.75
2023-02-06T02:47:21.196Z,13.70
2023-02-06T02:50:08.400Z,13.95
2023-02-06T02:52:55.793Z,14.52
2023-02-06T02:55:42.722Z,14.18
2023-02-06T02:58:34.158Z,13.40
2023-02-06T03:01:26.426Z,13.00
2023-02-06T03:04:19.461Z,14.32
2023-02-06T03:07:15.085Z,13.30
2023-02-06T03:10:20.792Z,13.32
2023-02-06T03:13:18.072Z,12.93
2023-02-06T03:16:17.340Z,12.25
2023-02-06T03:19:44.125Z,11.57
2023-02-06T03:22:32.932Z,12.77
2023-02-06T03:25:28.121Z,15.05
2023-02-06T03:28:21.246Z,13.68
2023-02-06T03:31:11.946Z,14.90
2023-02-06T03:34:07.017Z,14.60
2023-02-06T03:36:53.953Z,13.52
2023-02-06T03:39:40.946Z,13.75
2023-02-06T03:42:29.742Z,12.70
2023-02-06T03:45:28.609Z,13.88
2023-02-06T03:48:21.802Z,13.32
2023-02-06T03:51:13.419Z,13.63
2023-02-06T03:54:02.932Z,13.32
2023-02-06T03:57:02.910Z,14.35
2023-02-06T03:59:50.142Z,12.55
2023-02-06T04:02:37.868Z,12.23
2023-02-06T04:08:11.681Z,12.50
2023-02-06T04:10:58.583Z,13.33
2023-02-06T04:13:45.496Z,13.27
2023-02-06T04:16:32.355Z,13.70
2023-02-06T04:19:19.174Z,14.30
2023-02-06T04:22:07.308Z,14.53
2023-02-06T04:24:54.244Z,13.88
2023-02-06T04:27:41.194Z,14.02
2023-02-06T04:30:28.312Z,12.98
2023-02-06T04:33:15.205Z,13.68
2023-02-06T04:36:02.094Z,10.57
2023-02-06T04:38:48.945Z,15.60
2023-02-06T04:41:35.778Z,15.20
2023-02-06T04:44:23.115Z,15.30
2023-02-06T04:47:10.008Z,15.15
2023-02-06T04:49:56.797Z,14.50
2023-02-06T04:52:43.658Z,14.80
2023-02-06T04:55:30.512Z,15.57
2023-02-06T04:58:17.349Z,15.07
2023-02-06T05:01:04.322Z,14.50
2023-02-06T05:03:51.330Z,14.13
2023-02-06T05:06:38.228Z,14.30
2023-02-06T05:09:25.072Z,15.13
2023-02-06T05:12:14.206Z,15.77
2023-02-06T05:15:01.236Z,15.65
2023-02-06T05:17:48.123Z,14.70
2023-02-06T05:20:35.005Z,15.17
2023-02-06T05:23:21.910Z,15.10
2023-02-06T05:26:08.980Z,14.27
2023-02-06T05:28:55.826Z,14.80
2023-02-06T05:31:42.900Z,14.37
2023-02-06T05:34:29.764Z,14.52
2023-02-06T05:37:16.689Z,13.60
2023-02-06T05:40:07.190Z,15.55
2023-02-06T05:42:54.058Z,13.60
2023-02-06T05:45:41.119Z,14.27
2023-02-06T05:48:30.600Z,13.82
2023-02-06T05:51:17.580Z,13.13
2023-02-06T05:54:04.802Z,14.75
2023-02-06T05:56:51.836Z,15.02
2023-02-06T05:59:38.848Z,15.40
2023-02-06T06:02:25.712Z,16.50
2023-02-06T06:05:12.588Z,16.57
2023-02-06T06:07:59.391Z,15.63
2023-02-06T06:10:46.272Z,15.93
2023-02-06T06:13:33.120Z,14.93
2023-02-06T06:16:19.917Z,16.60
2023-02-06T06:19:07.016Z,16.37
2023-02-06T06:21:53.870Z,17.02
2023-02-06T06:24:40.785Z,17.27
2023-02-06T06:27:27.702Z,18.17
2023-02-06T06:30:14.903Z,18.60
2023-02-06T06:33:01.829Z,17.70
2023-02-06T06:35:48.661Z,16.63
2023-02-06T06:38:35.610Z,15.82
2023-02-06T06:41:22.439Z,15.90
2023-02-06T06:44:09.234Z,18.03
2023-02-06T06:46:56.105Z,18.10
2023-02-06T06:49:42.952Z,17.17
2023-02-06T06:52:29.720Z,16.43
2023-02-06T06:55:16.900Z,14.65
2023-02-06T06:58:03.730Z,15.93
2023-02-06T07:00:53.854Z,16.97
2023-02-06T07:03:44.246Z,15.30
2023-02-06T07:06:31.134Z,15.40
2023-02-06T07:09:18.076Z,16.77
2023-02-06T07:12:05.483Z,16.37
2023-02-06T07:14:52.399Z,15.20
2023-02-06T07:17:39.428Z,15.85
2023-02-06T07:20:26.349Z,16.70
2023-02-06T07:23:13.226Z,14.73
2023-02-06T07:26:02.344Z,16.30
2023-02-06T07:28:49.911Z,13.57
2023-02-06T07:31:36.753Z,15.85
2023-02-06T07:34:23.749Z,14.93
2023-02-06T07:37:10.664Z,15.88
2023-02-06T07:39:57.471Z,16.47
2023-02-06T07:42:44.282Z,14.77
2023-02-06T07:45:31.227Z,14.90
2023-02-06T07:48:18.039Z,13.20
2023-02-06T07:51:09.209Z,13.77
2023-02-06T07:53:55.989Z,19.15
2023-02-06T07:56:43.287Z,20.65
2023-02-06T07:59:30.219Z,18.58
2023-02-06T08:02:17.196Z,18.92
2023-02-06T08:05:04.033Z,16.58
2023-02-06T08:07:52.147Z,15.70
2023-02-06T08:10:40.020Z,16.25
2023-02-06T08:13:26.856Z,16.52
2023-02-06T08:16:16.376Z,17.97
2023-02-06T08:19:03.262Z,17.08
2023-02-06T08:21:50.809Z,16.20
2023-02-06T08:24:37.651Z,16.92
2023-02-06T08:27:24.467Z,17.00
2023-02-06T08:30:12.255Z,14.23
2023-02-06T08:35:45.860Z,12.68
2023-02-06T08:38:32.955Z,12.83
2023-02-06T08:41:26.398Z,14.13
2023-02-06T08:44:16.334Z,14.35
2023-02-06T08:47:10.116Z,13.63
2023-02-06T08:49:57.394Z,14.40
2023-02-06T08:52:44.271Z,14.20
2023-02-06T08:55:31.186Z,14.90
2023-02-06T08:58:18.060Z,13.97
2023-02-06T09:01:09.768Z,14.70
2023-02-06T09:04:01.716Z,16.00
2023-02-06T09:06:52.241Z,16.45
2023-02-06T09:09:39.392Z,16.58
2023-02-06T09:12:26.213Z,19.05
2023-02-06T09:15:13.046Z,19.55
2023-02-06T09:17:59.921Z,22.67
2023-02-06T09:20:49.753Z,23.17
2023-02-06T09:23:37.035Z,21.95
2023-02-06T09:26:25.921Z,21.50
2023-02-06T09:29:13.496Z,21.85
2023-02-06T09:32:00.964Z,18.92
2023-02-06T09:34:49.103Z,17.60
2023-02-06T09:37:36.676Z,19.52
2023-02-06T09:40:28.046Z,18.13
2023-02-06T09:43:15.081Z,15.40
2023-02-06T09:46:05.968Z,14.07
2023-02-06T09:48:54.091Z,13.85
2023-02-06T09:51:53.329Z,15.05
2023-02-06T09:54:52.267Z,18.23
2023-02-06T09:58:30.012Z,20.95
2023-02-06T10:01:23.087Z,20.60
2023-02-06T10:04:25.333Z,17.08
2023-02-06T10:07:43.078Z,15.98
2023-02-06T10:10:38.875Z,17.67
2023-02-06T10:13:52.764Z,20.17
2023-02-06T10:16:51.614Z,16.60
2023-02-06T10:19:56.426Z,13.75
2023-02-06T10:22:47.605Z,11.52
2023-02-06T10:25:39.016Z,10.40
2023-02-06T10:28:29.316Z,9.80
2023-02-06T10:31:19.398Z,9.65
2023-02-06T10:34:17.556Z,9.82
2023-02-06T10:37:25.638Z,10.85
2023-02-06T10:40:34.400Z,11.63
2023-02-06T10:43:40.618Z,11.82
2023-02-06T10:46:36.367Z,11.63
2023-02-06T10:49:37.879Z,9.82
2023-02-06T10:52:30.923Z,9.95
2023-02-06T10:55:25.001Z,11.43
2023-02-06T10:58:23.912Z,11.20
2023-02-06T11:01:25.749Z,11.90
2023-02-06T11:04:40.626Z,12.25
2023-02-06T11:07:31.964Z,14.40
2023-02-06T11:10:21.570Z,16.20
2023-02-06T11:13:21.218Z,16.02
2023-02-06T11:16:14.239Z,15.82
2023-02-06T11:19:10.734Z,15.80
2023-02-06T11:22:15.911Z,14.50
2023-02-06T11:25:07.948Z,14.05
2023-02-06T11:27:55.775Z,13.68
2023-02-06T11:33:50.560Z,13.23
2023-02-06T11:36:39.000Z,14.30
2023-02-06T11:39:35.329Z,12.70
2023-02-06T11:42:24.870Z,14.32
2023-02-06T11:45:31.248Z,14.30
2023-02-06T11:48:48.710Z,14.43
2023-02-06T11:51:48.919Z,13.90
2023-02-06T11:54:36.394Z,14.80
2023-02-06T11:57:26.845Z,14.57
2023-02-06T12:00:24.191Z,13.65
2023-02-06T12:03:33.141Z,13.55
2023-02-06T12:09:13.324Z,15.93
2023-02-06T12:12:14.272Z,15.30
2023-02-06T12:15:36.231Z,15.13
2023-02-06T12:18:44.017Z,19.60
2023-02-06T12:21:50.660Z,19.58
2023-02-06T12:24:44.575Z,20.90
2023-02-06T12:27:39.455Z,21.60
2023-02-06T12:30:38.777Z,20.40
2023-02-06T12:33:42.300Z,23.13
2023-02-06T12:36:38.535Z,26.10
2023-02-06T12:39:26.685Z,23.13
2023-02-06T12:42:47.311Z,21.80
2023-02-06T12:45:58.354Z,20.52
2023-02-06T12:49:23.635Z,20.83
2023-02-06T12:52:16.158Z,23.17
2023-02-06T12:55:29.030Z,21.45
2023-02-06T12:58:43.715Z,21.33
2023-02-06T13:02:01.077Z,20.58
2023-02-06T13:04:48.528Z,21.30
2023-02-06T13:07:48.995Z,20.58
2023-02-06T13:10:37.600Z,20.67
2023-02-06T13:13:32.943Z,22.80
2023-02-06T13:16:19.906Z,22.05
2023-02-06T13:19:19.487Z,21.70
2023-02-06T13:22:09.461Z,22.17
2023-02-06T13:24:58.316Z,23.42
2023-02-06T13:27:45.370Z,21.33
2023-02-06T13:30:32.233Z,22.13
2023-02-06T13:33:27.087Z,20.83
2023-02-06T13:36:24.800Z,22.00
2023-02-06T13:39:32.855Z,21.25
2023-02-06T13:42:34.648Z,19.75
2023-02-06T13:45:41.668Z,19.92
2023-02-06T13:48:50.115Z,21.83
2023-02-06T13:52:16.342Z,23.55
2023-02-06T13:55:16.173Z,22.65
2023-02-06T13:58:20.633Z,20.65
2023-02-06T14:01:14.588Z,17.83
2023-02-06T14:04:01.698Z,19.27
2023-02-06T14:07:17.845Z,16.38
2023-02-06T14:11:07.874Z,16.08
2023-02-06T14:14:17.366Z,16.15
2023-02-06T14:17:28.677Z,16.20
2023-02-06T14:20:42.025Z,15.10
2023-02-06T14:23:58.007Z,14.15
2023-02-06T14:26:50.800Z,13.15
2023-02-06T14:29:54.505Z,12.88
2023-02-06T14:32:54.045Z,12.65
2023-02-06T14:36:02.812Z,12.00
2023-02-06T14:39:26.514Z,12.05
2023-02-06T14:42:39.313Z,11.88
2023-02-06T14:45:41.722Z,13.82
2023-02-06T14:48:44.439Z,12.82
2023-02-06T14:51:39.741Z,13.00
2023-02-06T14:54:38.245Z,12.90
2023-02-06T14:57:26.749Z,13.00
2023-02-06T15:00:19.232Z,12.68
2023-02-06T15:03:19.207Z,13.50
2023-02-06T15:06:10.322Z,13.60
2023-02-06T15:08:57.334Z,12.90
2023-02-06T15:11:51.674Z,14.38
2023-02-06T15:14:38.730Z,15.68
2023-02-06T15:17:26.924Z,17.17
2023-02-06T15:20:25.826Z,16.23
2023-02-06T15:23:18.400Z,14.98
2023-02-06T15:26:17.866Z,13.27
2023-02-06T15:29:14.317Z,13.48
2023-02-06T15:32:07.893Z,13.85
2023-02-06T15:34:54.887Z,13.77
2023-02-06T15:37:41.724Z,13.18
2023-02-06T15:40:39.049Z,12.70
2023-02-06T15:43:27.118Z,12.27
2023-02-06T15:46:15.015Z,13.02
2023-02-06T15:49:02.007Z,13.48
2023-02-06T15:51:54.980Z,13.18
2023-02-06T15:54:45.029Z,14.18
2023-02-06T15:57:35.670Z,13.48
2023-02-06T16:00:32.806Z,12.75
2023-02-06T16:03:23.111Z,12.10
2023-02-06T16:06:17.538Z,12.85
2023-02-06T16:09:07.346Z,13.93
2023-02-06T16:11:57.018Z,14.38
2023-02-06T16:15:01.159Z,15.10
2023-02-06T16:17:48.081Z,15.02
2023-02-06T16:20:42.447Z,15.25
2023-02-06T16:23:43.242Z,14.52
2023-02-06T16:26:43.117Z,15.27
2023-02-06T16:29:32.709Z,14.75
2023-02-06T16:32:31.458Z,15.52
2023-02-06T16:35:18.392Z,15.23
2023-02-06T16:38:06.586Z,15.45
2023-02-06T16:40:53.519Z,17.17
2023-02-06T16:43:41.639Z,17.35
2023-02-06T16:46:29.213Z,16.95
2023-02-06T16:49:19.480Z,17.50
2023-02-06T16:52:06.816Z,17.90
2023-02-06T16:54:55.992Z,17.33
2023-02-06T16:57:45.108Z,15.40
2023-02-06T17:00:32.614Z,17.80
2023-02-06T17:03:19.557Z,16.88
2023-02-06T17:06:07.321Z,16.98
2023-02-06T17:11:42.209Z,14.23
2023-02-06T17:14:29.122Z,15.80
2023-02-06T17:17:19.354Z,16.27
2023-02-06T17:20:17.445Z,14.35
2023-02-06T17:23:05.180Z,13.70
2023-02-06T17:25:52.276Z,14.25
2023-02-06T17:28:39.368Z,13.25
2023-02-06T17:31:26.653Z,13.95
2023-02-06T17:34:13.573Z,13.48
2023-02-06T17:37:00.686Z,11.97
2023-02-06T17:39:51.959Z,8.00
2023-02-06T17:42:38.775Z,10.98
2023-02-06T17:45:26.449Z,10.37
2023-02-06T17:48:13.761Z,9.95
2023-02-06T17:51:00.618Z,9.80
2023-02-06T17:53:47.548Z,9.80
2023-02-06T17:56:35.338Z,10.18
2023-02-06T18:02:14.628Z,9.10
2023-02-06T18:05:01.578Z,8.77
2023-02-06T18:07:50.685Z,9.70
2023-02-06T18:10:39.536Z,9.70
2023-02-06T18:13:28.307Z,9.93
2023-02-06T18:16:21.424Z,9.70
2023-02-06T18:19:08.597Z,10.35
2023-02-06T18:21:55.458Z,10.45
2023-02-06T18:24:42.437Z,10.02
2023-02-06T18:27:29.803Z,10.90
2023-02-06T18:30:17.323Z,10.40
2023-02-06T18:33:04.235Z,10.35
2023-02-06T18:35:51.431Z,10.50
2023-02-06T18:38:38.431Z,9.52
2023-02-06T18:41:43.890Z,9.80
2023-02-06T18:44:31.306Z,9.70
2023-02-06T18:47:18.987Z,9.75
2023-02-06T18:50:06.271Z,9.73
2023-02-06T18:52:53.451Z,10.18
2023-02-06T18:55:40.554Z,9.98
2023-02-06T18:58:27.448Z,9.80
2023-02-06T19:01:21.156Z,9.57
2023-02-06T19:04:07.939Z,10.20
2023-02-06T19:06:55.098Z,10.77
2023-02-06T19:09:42.396Z,11.70
2023-02-06T19:12:29.775Z,12.20
2023-02-06T19:15:16.655Z,12.23
2023-02-06T19:18:05.438Z,11.87
2023-02-06T19:20:52.253Z,11.73
2023-02-06T19:23:39.877Z,10.53
2023-02-06T19:29:19.341Z,10.13
2023-02-06T19:32:10.810Z,10.63
2023-02-06T19:34:58.110Z,11.18
2023-02-06T19:37:45.002Z,11.40
2023-02-06T19:40:32.340Z,11.50
2023-02-06T19:43:19.657Z,10.60
2023-02-06T19:46:13.084Z,10.55
2023-02-06T19:49:00.333Z,9.93
2023-02-06T19:51:47.367Z,10.07
2023-02-06T19:54:34.174Z,10.52
2023-02-06T19:57:21.034Z,10.40
2023-02-06T20:00:08.606Z,10.50
2023-02-06T20:02:55.719Z,11.65
2023-02-06T20:05:43.724Z,11.65
2023-02-06T20:08:30.761Z,10.65
2023-02-06T20:11:20.379Z,11.50
2023-02-06T20:14:07.640Z,11.23
2023-02-06T20:16:54.582Z,11.68
2023-02-06T20:19:41.566Z,10.85
2023-02-06T20:22:28.919Z,11.30
2023-02-06T20:25:16.678Z,10.95
2023-02-06T20:30:51.283Z,10.55
2023-02-06T20:33:38.716Z,11.23
2023-02-06T20:36:27.568Z,11.45
2023-02-06T20:39:15.111Z,12.70
2023-02-06T20:42:01.974Z,13.25
2023-02-06T20:44:50.317Z,12.77
2023-02-06T20:47:37.440Z,12.48
2023-02-06T20:50:24.330Z,11.70
2023-02-06T20:53:11.322Z,12.02
2023-02-06T20:55:59.319Z,12.23
2023-02-06T20:58:47.268Z,12.63
2023-02-06T21:01:34.872Z,11.85
2023-02-06T21:04:21.832Z,12.52
2023-02-06T21:07:08.714Z,12.52
2023-02-06T21:09:55.556Z,13.03
2023-02-06T21:12:42.379Z,13.60
2023-02-06T21:15:29.575Z,14.53
2023-02-06T21:18:16.746Z,14.05
2023-02-06T21:21:09.443Z,14.80
2023-02-06T21:23:56.373Z,13.55
2023-02-06T21:26:43.811Z,15.38
2023-02-06T21:29:31.841Z,14.85
2023-02-06T21:32:19.043Z,14.73
2023-02-06T21:35:09.250Z,13.43
2023-02-06T21:37:56.642Z,14.27
2023-02-06T21:40:44.749Z,15.07
2023-02-06T21:43:31.802Z,15.65
2023-02-06T21:46:18.699Z,16.23
2023-02-06T21:49:06.532Z,16.27
2023-02-06T21:51:53.592Z,17.17
2023-02-06T21:54:40.484Z,17.33
2023-02-06T21:57:27.336Z,17.60
2023-02-06T22:00:14.781Z,16.73
2023-02-06T22:03:02.011Z,15.38
2023-02-06T22:05:49.080Z,15.55
2023-02-06T22:08:36.937Z,12.25
2023-02-06T22:11:28.786Z,15.70
2023-02-06T22:14:17.868Z,15.60
2023-02-06T22:17:04.783Z,15.20
2023-02-06T22:19:53.578Z,16.58
2023-02-06T22:22:41.245Z,15.90
2023-02-06T22:28:15.496Z,16.90
2023-02-06T22:31:11.417Z,18.15
2023-02-06T22:34:00.036Z,18.83
2023-02-06T22:36:47.580Z,18.15
2023-02-06T22:39:34.776Z,18.92
2023-02-06T22:42:22.063Z,18.50
2023-02-06T22:45:09.224Z,18.50
2023-02-06T22:47:56.029Z,18.83
2023-02-06T22:50:42.831Z,20.23
2023-02-06T22:53:31.553Z,19.50
2023-02-06T22:56:31.897Z,18.30
2023-02-06T22:59:21.757Z,17.45
2023-02-06T23:02:08.677Z,16.67
2023-02-06T23:04:55.712Z,16.90
2023-02-06T23:07:42.677Z,17.50
2023-02-06T23:10:29.506Z,17.63
2023-02-06T23:13:16.362Z,16.77
2023-02-06T23:16:03.749Z,15.50
2023-02-06T23:18:50.956Z,15.02
2023-02-06T23:21:39.678Z,15.57
2023-02-06T23:24:26.688Z,14.73
2023-02-06T23:27:13.540Z,15.10
2023-02-06T23:30:00.462Z,15.83
2023-02-06T23:32:47.527Z,15.95
2023-02-06T23:35:39.852Z,15.98
2023-02-06T23:38:26.879Z,16.50
2023-02-06T23:41:33.241Z,15.27
2023-02-06T23:44:20.163Z,15.00
2023-02-06T23:47:06.999Z,15.55
2023-02-06T23:49:53.895Z,14.67
2023-02-06T23:52:41.050Z,14.02
2023-02-06T23:55:28.484Z,13.52
2023-02-06T23:58:15.490Z,13.80
